Time;durP1;ratioP1;P1;durP2;ratioP2;P2;SDS_P1;SDS_P2;PMS_P1;PMS_P2;Temp;Humidity;BMP_temperature;BMP_pressure;BME280_temperature;BME280_humidity;BME280_pressure;Samples;Min_cycle;Max_cycle;Signal;HPM_P1;HPM_P2
2023/08/04 00:01:44;;;;;;;;;;;17.20;99.90;;;;;;5252653;22;20243;-70
2023/08/04 00:04:09;;;;;;;;;;;17.10;99.90;;;;;;5048139;28;19929;-69
2023/08/04 00:06:35;;;;;;;;;;;17.10;99.90;;;;;;5041962;28;20012;-69
2023/08/04 00:09:00;;;;;;;;;;;17.10;99.90;;;;;;5050575;28;20408;-69
2023/08/04 00:11:26;;;;;;;;;;;17.10;99.90;;;;;;5050385;28;19921;-69
2023/08/04 00:13:51;;;;;;;;;;;17.10;99.90;;;;;;5051035;28;19952;-69
2023/08/04 00:16:17;;;;;;;;;;;17.00;99.90;;;;;;5051383;28;20287;-70
2023/08/04 00:18:43;;;;;;;;;;;17.00;99.90;;;;;;5033009;28;19921;-69
2023/08/04 00:21:08;;;;;;;;;;;17.00;99.90;;;;;;5050725;28;20052;-70
2023/08/04 00:23:34;;;;;;;;;;;17.00;99.90;;;;;;5048581;28;19928;-71
2023/08/04 00:25:59;;;;;;;;;;;17.00;99.90;;;;;;5050223;28;19943;-70
2023/08/04 00:28:25;;;;;;;;;;;17.00;99.90;;;;;;5050306;28;20322;-70
2023/08/04 00:30:51;;;;;;;;;;;17.00;99.90;;;;;;5050871;28;20205;-70
2023/08/04 00:33:16;;;;;;;;;;;17.00;99.90;;;;;;5045302;28;19960;-69
2023/08/04 00:35:42;;;;;;;;;;;17.00;99.90;;;;;;5054704;28;19960;-69
2023/08/04 00:38:07;;;;;;;;;;;16.90;99.90;;;;;;5053156;28;19924;-69
2023/08/04 00:40:33;;;;;;;;;;;17.00;99.90;;;;;;5054530;28;19956;-71
2023/08/04 00:43:00;;;;;;;;;;;16.90;99.90;;;;;;5030153;28;19921;-70
2023/08/04 00:45:28;;;;;;;;;;;16.90;99.90;;;;;;5054713;28;19928;-69
2023/08/04 00:47:54;;;;;;;;;;;16.90;99.90;;;;;;5053691;28;20208;-70
2023/08/04 00:50:20;;;;;;;;;;;16.90;99.90;;;;;;5053665;28;20011;-69
2023/08/04 00:52:46;;;;;;;;;;;16.80;99.90;;;;;;5052402;28;19931;-69
2023/08/04 00:55:13;;;;;;;;;;;16.80;99.90;;;;;;5050689;28;19928;-70
2023/08/04 00:57:39;;;;;;;;;;;16.80;99.90;;;;;;5057852;28;20385;-70
2023/08/04 01:00:06;;;;;;;;;;;16.80;99.90;;;;;;5051113;28;19964;-68
2023/08/04 01:02:31;;;;;;;;;;;16.80;99.90;;;;;;5036293;28;20020;-69
2023/08/04 01:04:57;;;;;;;;;;;16.80;99.90;;;;;;5048202;28;20136;-69
2023/08/04 01:07:24;;;;;;;;;;;16.80;99.90;;;;;;5053552;28;19960;-69
2023/08/04 01:09:55;;;;;;;;;;;16.80;99.90;;;;;;5035762;28;19920;-70
2023/08/04 01:12:24;;;;;;;;;;;16.80;99.90;;;;;;5053952;28;19920;-69
2023/08/04 01:14:53;;;;;;;;;;;16.80;99.90;;;;;;5051121;28;20015;-69
2023/08/04 01:17:28;;;;;;;;;;;16.80;99.90;;;;;;5053048;28;19920;-70
2023/08/04 01:19:54;;;;;;;;;;;16.80;99.90;;;;;;5052141;28;20019;-69
2023/08/04 01:22:20;;;;;;;;;;;16.80;99.90;;;;;;5052806;28;19920;-70
2023/08/04 01:24:46;;;;;;;;;;;16.80;99.90;;;;;;5039003;28;20027;-70
2023/08/04 01:27:12;;;;;;;;;;;16.80;99.90;;;;;;5040942;28;19997;-70
2023/08/04 01:29:39;;;;;;;;;;;16.80;99.90;;;;;;5040882;28;19980;-69
2023/08/04 01:32:05;;;;;;;;;;;16.80;99.90;;;;;;5052044;28;19960;-69
2023/08/04 01:34:31;;;;;;;;;;;16.70;99.90;;;;;;5032512;28;19921;-70
2023/08/04 01:36:57;;;;;;;;;;;16.80;99.90;;;;;;5028998;28;19939;-70
2023/08/04 01:39:25;;;;;;;;;;;16.70;99.90;;;;;;5052395;28;19947;-70
2023/08/04 01:41:51;;;;;;;;;;;16.70;99.90;;;;;;5035764;28;20247;-69
2023/08/04 01:44:17;;;;;;;;;;;16.70;99.90;;;;;;5035945;28;19927;-70
2023/08/04 01:46:42;;;;;;;;;;;16.70;99.90;;;;;;5046853;28;20383;-70
2023/08/04 01:49:09;;;;;;;;;;;16.70;99.90;;;;;;5017372;28;20254;-69
2023/08/04 01:51:35;;;;;;;;;;;16.70;99.90;;;;;;5042083;28;20307;-70
2023/08/04 01:54:01;;;;;;;;;;;16.70;99.90;;;;;;5035471;28;19927;-70
2023/08/04 01:56:26;;;;;;;;;;;16.70;99.90;;;;;;5051924;28;20030;-70
2023/08/04 01:58:52;;;;;;;;;;;16.70;99.90;;;;;;5040636;28;19944;-70
2023/08/04 02:01:18;;;;;;;;;;;16.70;99.90;;;;;;5019474;28;19920;-69
2023/08/04 02:03:43;;;;;;;;;;;16.60;99.90;;;;;;5051766;28;19924;-70
2023/08/04 02:06:09;;;;;;;;;;;16.70;99.90;;;;;;5053307;28;19921;-69
2023/08/04 02:08:34;;;;;;;;;;;16.60;99.90;;;;;;5033942;28;20382;-70
2023/08/04 02:11:00;;;;;;;;;;;16.60;99.90;;;;;;5047296;28;19921;-69
2023/08/04 02:13:25;;;;;;;;;;;16.60;99.90;;;;;;5052323;28;19952;-69
2023/08/04 02:15:51;;;;;;;;;;;16.60;99.90;;;;;;5052890;28;19934;-69
2023/08/04 02:18:17;;;;;;;;;;;16.60;99.90;;;;;;5047112;28;20062;-69
2023/08/04 02:20:42;;;;;;;;;;;16.60;99.90;;;;;;5049720;28;20325;-69
2023/08/04 02:23:08;;;;;;;;;;;16.60;99.90;;;;;;5051530;28;19929;-70
2023/08/04 02:25:35;;;;;;;;;;;16.50;99.90;;;;;;5051776;28;20008;-70
2023/08/04 02:28:00;;;;;;;;;;;16.50;99.90;;;;;;5051581;28;19927;-70
2023/08/04 02:30:26;;;;;;;;;;;16.50;99.90;;;;;;5049195;28;19925;-69
2023/08/04 02:32:51;;;;;;;;;;;16.50;99.90;;;;;;5050602;28;19925;-69
2023/08/04 02:35:17;;;;;;;;;;;16.50;99.90;;;;;;5035248;28;20446;-69
2023/08/04 02:37:42;;;;;;;;;;;16.40;99.90;;;;;;5052211;28;19921;-69
2023/08/04 02:40:08;;;;;;;;;;;16.40;99.90;;;;;;5051156;28;19960;-69
2023/08/04 02:42:34;;;;;;;;;;;16.50;99.90;;;;;;5038677;28;19921;-69
2023/08/04 02:44:59;;;;;;;;;;;16.50;99.90;;;;;;5050920;28;19932;-70
2023/08/04 02:47:25;;;;;;;;;;;16.50;99.90;;;;;;5052701;28;20011;-70
2023/08/04 02:49:50;;;;;;;;;;;16.50;99.90;;;;;;5049459;28;20393;-70
2023/08/04 02:52:16;;;;;;;;;;;16.40;99.90;;;;;;5051341;28;19928;-70
2023/08/04 02:54:42;;;;;;;;;;;16.40;99.90;;;;;;5044612;28;19971;-70
2023/08/04 02:57:08;;;;;;;;;;;16.40;99.90;;;;;;5051887;28;19924;-70
2023/08/04 02:59:33;;;;;;;;;;;16.30;99.90;;;;;;5053058;28;19921;-68
2023/08/04 03:01:59;;;;;;;;;;;16.30;99.90;;;;;;5042329;28;19920;-69
2023/08/04 03:04:25;;;;;;;;;;;16.30;99.90;;;;;;5053023;28;19924;-70
2023/08/04 03:06:50;;;;;;;;;;;16.30;99.90;;;;;;5032371;28;19975;-70
2023/08/04 03:09:16;;;;;;;;;;;16.30;99.90;;;;;;5052066;28;19921;-70
2023/08/04 03:11:42;;;;;;;;;;;16.30;99.90;;;;;;5033590;28;19927;-70
2023/08/04 03:14:08;;;;;;;;;;;16.20;99.90;;;;;;5051756;28;19925;-70
2023/08/04 03:16:33;;;;;;;;;;;16.20;99.90;;;;;;5050801;28;19961;-70
2023/08/04 03:18:59;;;;;;;;;;;16.20;99.90;;;;;;5044355;28;19921;-70
2023/08/04 03:21:24;;;;;;;;;;;16.20;99.90;;;;;;5035106;28;19931;-70
2023/08/04 03:23:50;;;;;;;;;;;16.20;99.90;;;;;;5051398;28;20358;-69
2023/08/04 03:26:15;;;;;;;;;;;16.20;99.90;;;;;;5051945;28;19924;-69
2023/08/04 03:28:41;;;;;;;;;;;16.10;99.90;;;;;;5052731;28;19943;-69
2023/08/04 03:31:06;;;;;;;;;;;16.10;99.90;;;;;;5047315;28;19929;-70
2023/08/04 03:33:32;;;;;;;;;;;16.10;99.90;;;;;;5019756;28;19999;-70
2023/08/04 03:35:58;;;;;;;;;;;16.10;99.90;;;;;;5049182;28;20336;-71
2023/08/04 03:38:23;;;;;;;;;;;16.00;99.90;;;;;;5051228;28;20019;-70
2023/08/04 03:40:49;;;;;;;;;;;16.00;99.90;;;;;;5051026;28;19921;-69
2023/08/04 03:43:14;;;;;;;;;;;15.90;99.90;;;;;;5049018;28;19929;-70
2023/08/04 03:45:40;;;;;;;;;;;15.90;99.90;;;;;;5042908;28;20303;-69
2023/08/04 03:48:06;;;;;;;;;;;15.90;99.90;;;;;;5037885;28;20015;-69
2023/08/04 03:50:31;;;;;;;;;;;15.90;99.90;;;;;;5051070;28;19921;-70
2023/08/04 03:52:57;;;;;;;;;;;15.90;99.90;;;;;;5048957;28;19929;-70
2023/08/04 03:55:22;;;;;;;;;;;15.90;99.90;;;;;;5041701;28;20008;-70
2023/08/04 03:57:48;;;;;;;;;;;15.90;99.90;;;;;;5046546;28;19924;-70
2023/08/04 04:00:14;;;;;;;;;;;15.90;99.90;;;;;;5050866;28;19982;-69
2023/08/04 04:02:40;;;;;;;;;;;15.90;99.90;;;;;;5050215;28;19921;-69
2023/08/04 04:05:05;;;;;;;;;;;15.90;99.90;;;;;;5041618;28;19932;-68
2023/08/04 04:07:31;;;;;;;;;;;15.90;99.90;;;;;;5030986;28;19921;-70
2023/08/04 04:09:57;;;;;;;;;;;15.80;99.90;;;;;;5054728;28;19920;-69
2023/08/04 04:12:22;;;;;;;;;;;15.80;99.90;;;;;;5054353;28;19997;-70
2023/08/04 04:14:48;;;;;;;;;;;15.80;99.90;;;;;;5052838;28;19963;-70
2023/08/04 04:17:13;;;;;;;;;;;15.70;99.90;;;;;;5026464;28;19981;-70
2023/08/04 04:19:40;;;;;;;;;;;15.60;99.90;;;;;;5054276;28;20030;-70
2023/08/04 04:22:06;;;;;;;;;;;15.60;99.90;;;;;;5055092;28;19927;-71
2023/08/04 04:24:32;;;;;;;;;;;15.70;99.90;;;;;;5054363;28;19920;-69
2023/08/04 04:26:57;;;;;;;;;;;15.70;99.90;;;;;;5044775;28;20491;-69
2023/08/04 04:29:23;;;;;;;;;;;15.70;99.90;;;;;;5054240;28;19920;-69
2023/08/04 04:31:48;;;;;;;;;;;15.70;99.90;;;;;;5047884;28;19939;-69
2023/08/04 04:34:14;;;;;;;;;;;15.70;99.90;;;;;;5039582;28;19972;-69
2023/08/04 04:36:39;;;;;;;;;;;15.80;99.90;;;;;;5046014;28;19928;-70
2023/08/04 04:39:05;;;;;;;;;;;15.80;99.90;;;;;;5050881;28;19925;-70
2023/08/04 04:41:31;;;;;;;;;;;15.80;99.90;;;;;;5036815;28;20008;-70
2023/08/04 04:43:57;;;;;;;;;;;15.90;99.90;;;;;;5054727;28;19947;-70
2023/08/04 04:46:22;;;;;;;;;;;15.90;99.90;;;;;;5051659;28;19921;-70
2023/08/04 04:48:48;;;;;;;;;;;16.00;99.90;;;;;;5046183;28;19921;-70
2023/08/04 04:51:14;;;;;;;;;;;16.00;99.90;;;;;;5036542;28;19920;-69
2023/08/04 04:53:39;;;;;;;;;;;16.10;99.90;;;;;;5053088;28;20298;-69
2023/08/04 04:56:05;;;;;;;;;;;16.10;99.90;;;;;;5052142;28;19931;-70
2023/08/04 04:58:31;;;;;;;;;;;16.20;99.90;;;;;;5042684;28;19971;-70
2023/08/04 05:01:03;;;;;;;;;;;16.20;99.90;;;;;;5032899;28;19967;-70
2023/08/04 05:03:28;;;;;;;;;;;16.20;99.90;;;;;;5002937;28;19932;-70
2023/08/04 05:05:54;;;;;;;;;;;16.20;99.90;;;;;;5062301;28;19921;-70
2023/08/04 05:08:19;;;;;;;;;;;16.20;99.90;;;;;;5049312;28;19928;-70
2023/08/04 05:10:49;;;;;;;;;;;16.20;99.90;;;;;;5052269;28;20305;-70
2023/08/04 05:13:15;;;;;;;;;;;16.20;99.90;;;;;;5035655;28;19921;-71
2023/08/04 05:15:40;;;;;;;;;;;16.30;99.90;;;;;;5054056;28;19927;-69
2023/08/04 05:18:06;;;;;;;;;;;16.30;99.90;;;;;;5049933;28;19999;-71
2023/08/04 05:20:31;;;;;;;;;;;16.30;99.90;;;;;;5043309;28;20493;-71
2023/08/04 05:22:57;;;;;;;;;;;16.30;99.90;;;;;;5047206;28;19927;-70
2023/08/04 05:25:22;;;;;;;;;;;16.40;99.90;;;;;;5025863;28;20378;-70
2023/08/04 05:27:49;;;;;;;;;;;16.40;99.90;;;;;;5047959;28;19920;-70
2023/08/04 05:30:14;;;;;;;;;;;16.40;99.90;;;;;;5050355;28;20031;-70
2023/08/04 05:32:40;;;;;;;;;;;16.40;99.90;;;;;;5048446;28;20019;-71
2023/08/04 05:35:06;;;;;;;;;;;16.40;99.90;;;;;;5045381;28;19920;-70
2023/08/04 05:37:33;;;;;;;;;;;16.50;99.90;;;;;;5052104;28;19920;-71
2023/08/04 05:39:59;;;;;;;;;;;16.50;99.90;;;;;;5026563;28;19928;-69
2023/08/04 05:42:24;;;;;;;;;;;16.50;99.90;;;;;;5048061;28;20434;-71
2023/08/04 05:44:50;;;;;;;;;;;16.50;99.90;;;;;;5036483;28;19925;-69
2023/08/04 05:47:15;;;;;;;;;;;16.50;99.90;;;;;;5052560;28;19921;-70
2023/08/04 05:49:41;;;;;;;;;;;16.50;99.90;;;;;;5052267;28;19972;-70
2023/08/04 05:52:06;;;;;;;;;;;16.50;99.90;;;;;;5047886;28;20358;-70
2023/08/04 05:54:32;;;;;;;;;;;16.60;99.90;;;;;;5051553;28;19943;-70
2023/08/04 05:56:58;;;;;;;;;;;16.60;99.90;;;;;;5035774;28;20011;-70
2023/08/04 05:59:23;;;;;;;;;;;16.60;99.90;;;;;;5050857;28;20007;-71
2023/08/04 06:01:52;;;;;;;;;;;16.70;99.90;;;;;;5047298;28;19921;-69
2023/08/04 06:04:18;;;;;;;;;;;16.70;99.90;;;;;;5052449;28;19928;-71
2023/08/04 06:06:43;;;;;;;;;;;16.70;99.90;;;;;;5054090;28;19920;-70
2023/08/04 06:09:09;;;;;;;;;;;16.70;99.90;;;;;;5052640;28;19921;-71
2023/08/04 06:11:34;;;;;;;;;;;16.70;99.90;;;;;;5042058;28;20368;-71
2023/08/04 06:14:00;;;;;;;;;;;16.80;99.90;;;;;;5052357;28;19920;-70
2023/08/04 06:16:25;;;;;;;;;;;16.80;99.90;;;;;;5052247;28;19921;-71
2023/08/04 06:18:51;;;;;;;;;;;16.80;99.90;;;;;;5052767;28;19934;-71
2023/08/04 06:21:16;;;;;;;;;;;16.80;99.90;;;;;;5034819;28;19920;-71
2023/08/04 06:23:45;;;;;;;;;;;16.80;99.90;;;;;;5040315;28;19975;-70
2023/08/04 06:26:11;;;;;;;;;;;16.70;99.90;;;;;;5053235;28;19973;-71
2023/08/04 06:28:37;;;;;;;;;;;16.80;99.90;;;;;;5051358;28;19921;-71
2023/08/04 06:31:02;;;;;;;;;;;16.80;99.90;;;;;;5032369;28;19921;-70
2023/08/04 06:33:28;;;;;;;;;;;16.80;99.90;;;;;;5039587;28;19928;-70
2023/08/04 06:35:54;;;;;;;;;;;16.90;99.90;;;;;;5049336;28;19963;-69
2023/08/04 06:38:19;;;;;;;;;;;17.00;99.90;;;;;;5037078;28;20017;-81
2023/08/04 06:40:45;;;;;;;;;;;17.00;99.90;;;;;;5037244;28;19931;-80
2023/08/04 06:43:10;;;;;;;;;;;17.10;99.90;;;;;;5048333;28;20007;-77
2023/08/04 06:45:36;;;;;;;;;;;17.20;99.90;;;;;;5037493;28;20016;-83
2023/08/04 06:48:02;;;;;;;;;;;17.20;99.90;;;;;;5055499;28;20293;-83
2023/08/04 06:50:27;;;;;;;;;;;17.20;99.90;;;;;;5038203;28;19927;-83
2023/08/04 06:52:53;;;;;;;;;;;17.30;99.90;;;;;;5050261;28;19947;-83
2023/08/04 06:55:18;;;;;;;;;;;17.40;99.90;;;;;;5036863;28;19921;-82
2023/08/04 06:57:44;;;;;;;;;;;17.40;99.90;;;;;;5037867;28;20399;-82
2023/08/04 07:00:11;;;;;;;;;;;17.60;99.90;;;;;;5053917;28;19920;-82
2023/08/04 07:02:36;;;;;;;;;;;17.70;99.90;;;;;;5036199;28;19995;-81
2023/08/04 07:05:03;;;;;;;;;;;17.70;99.90;;;;;;5052992;28;19943;-82
2023/08/04 07:07:29;;;;;;;;;;;17.80;99.90;;;;;;5053963;28;20378;-81
2023/08/04 07:09:55;;;;;;;;;;;17.80;99.90;;;;;;5045097;28;19936;-81
2023/08/04 07:12:20;;;;;;;;;;;17.80;99.90;;;;;;5038286;28;20320;-82
2023/08/04 07:14:46;;;;;;;;;;;17.80;99.90;;;;;;5035368;28;19921;-82
2023/08/04 07:17:11;;;;;;;;;;;17.90;99.90;;;;;;5037141;28;19966;-83
2023/08/04 07:19:37;;;;;;;;;;;17.90;99.90;;;;;;5054145;28;19928;-80
2023/08/04 07:22:03;;;;;;;;;;;17.90;99.90;;;;;;5054519;28;19920;-81
2023/08/04 07:24:29;;;;;;;;;;;17.90;99.90;;;;;;5052694;28;19921;-77
2023/08/04 07:26:55;;;;;;;;;;;17.90;99.90;;;;;;5038878;28;19924;-83
2023/08/04 07:29:21;;;;;;;;;;;17.90;99.90;;;;;;5021365;28;20038;-82
2023/08/04 07:31:46;;;;;;;;;;;17.90;99.90;;;;;;5035456;28;19928;-80
2023/08/04 07:34:12;;;;;;;;;;;17.90;99.90;;;;;;5055940;28;19936;-83
2023/08/04 07:36:37;;;;;;;;;;;17.80;99.90;;;;;;5053862;28;19921;-76
2023/08/04 07:39:03;;;;;;;;;;;17.80;99.90;;;;;;5049088;28;19956;-81
2023/08/04 07:41:29;;;;;;;;;;;17.70;99.90;;;;;;5028687;28;19921;-78
2023/08/04 07:43:55;;;;;;;;;;;17.70;99.90;;;;;;5055499;28;20111;-76
2023/08/04 07:46:25;;;;;;;;;;;17.70;99.90;;;;;;5055523;28;19927;-79
2023/08/04 07:48:51;;;;;;;;;;;17.60;99.90;;;;;;5047782;28;19920;-78
2023/08/04 07:51:17;;;;;;;;;;;17.60;99.90;;;;;;5052761;28;20003;-77
2023/08/04 07:53:43;;;;;;;;;;;17.50;99.90;;;;;;5050000;28;19971;-78
2023/08/04 07:56:09;;;;;;;;;;;17.50;99.90;;;;;;5042979;28;19921;-75
2023/08/04 07:58:35;;;;;;;;;;;17.40;99.90;;;;;;5045284;28;19927;-78
2023/08/04 08:01:03;;;;;;;;;;;17.40;99.90;;;;;;5057146;28;19921;-74
2023/08/04 08:03:29;;;;;;;;;;;17.30;99.90;;;;;;5034994;28;19921;-75
2023/08/04 08:05:55;;;;;;;;;;;17.20;99.90;;;;;;5038576;28;20229;-76
2023/08/04 08:08:21;;;;;;;;;;;16.80;99.90;;;;;;5030345;28;19921;-76
2023/08/04 08:10:46;;;;;;;;;;;16.70;99.90;;;;;;5046384;28;20083;-76
2023/08/04 08:13:12;;;;;;;;;;;16.60;99.90;;;;;;5052155;28;19921;-75
2023/08/04 08:15:38;;;;;;;;;;;16.60;99.90;;;;;;5055522;28;20358;-76
2023/08/04 08:18:03;;;;;;;;;;;16.70;99.90;;;;;;5039073;28;19970;-76
2023/08/04 08:20:29;;;;;;;;;;;16.70;99.90;;;;;;5056657;28;19921;-76
2023/08/04 08:22:56;;;;;;;;;;;16.80;99.90;;;;;;5045052;28;19951;-77
2023/08/04 08:25:22;;;;;;;;;;;17.00;99.90;;;;;;5055436;28;19920;-80
2023/08/04 08:27:47;;;;;;;;;;;17.20;99.90;;;;;;5039116;28;20362;-76
2023/08/04 08:30:13;;;;;;;;;;;17.40;99.90;;;;;;5053945;28;19956;-73
2023/08/04 08:32:38;;;;;;;;;;;17.60;99.90;;;;;;5021800;28;19920;-80
2023/08/04 08:35:04;;;;;;;;;;;17.90;99.90;;;;;;5054675;28;19921;-75
2023/08/04 08:37:30;;;;;;;;;;;18.20;99.90;;;;;;5051414;28;19921;-75
2023/08/04 08:39:55;;;;;;;;;;;18.60;99.90;;;;;;5017527;28;20003;-75
2023/08/04 08:42:22;;;;;;;;;;;18.80;99.90;;;;;;5027671;28;19929;-74
2023/08/04 08:44:48;;;;;;;;;;;18.90;99.90;;;;;;5053373;28;19932;-75
2023/08/04 08:47:14;;;;;;;;;;;18.90;99.90;;;;;;5048134;28;20046;-73
2023/08/04 08:49:47;;;;;;;;;;;18.70;99.90;;;;;;5038833;28;20058;-77
2023/08/04 08:52:13;;;;;;;;;;;18.60;99.90;;;;;;5037822;28;19928;-73
2023/08/04 08:54:39;;;;;;;;;;;18.50;99.90;;;;;;5036524;28;19921;-73
2023/08/04 08:57:05;;;;;;;;;;;18.70;99.90;;;;;;5047049;28;19935;-75
2023/08/04 08:59:31;;;;;;;;;;;19.60;99.90;;;;;;5037709;28;19921;-75
2023/08/04 09:01:58;;;;;;;;;;;20.20;99.90;;;;;;5046958;28;19932;-74
2023/08/04 09:04:24;;;;;;;;;;;20.30;99.90;;;;;;5054000;28;19920;-75
2023/08/04 09:06:50;;;;;;;;;;;20.20;99.90;;;;;;5052601;28;19928;-74
2023/08/04 09:09:16;;;;;;;;;;;20.50;99.90;;;;;;5030710;28;19977;-75
2023/08/04 09:11:42;;;;;;;;;;;21.20;99.90;;;;;;5037825;28;19921;-75
2023/08/04 09:14:08;;;;;;;;;;;21.80;99.90;;;;;;5054728;28;19932;-74
2023/08/04 09:16:36;;;;;;;;;;;21.90;99.90;;;;;;5053054;28;20027;-74
2023/08/04 09:19:08;;;;;;;;;;;21.60;99.90;;;;;;5050372;28;19924;-75
2023/08/04 09:21:34;;;;;;;;;;;21.30;99.90;;;;;;5054646;28;20275;-75
2023/08/04 09:24:00;;;;;;;;;;;21.30;99.90;;;;;;5046904;28;19951;-75
2023/08/04 09:26:28;;;;;;;;;;;21.30;99.90;;;;;;5054092;28;19928;-75
2023/08/04 09:29:04;;;;;;;;;;;21.10;99.90;;;;;;5048955;28;20054;-74
2023/08/04 09:31:37;;;;;;;;;;;20.70;99.90;;;;;;5030003;28;19921;-75
2023/08/04 09:34:04;;;;;;;;;;;20.50;99.90;;;;;;5047420;28;20271;-72
2023/08/04 09:44:05;;;;;;;9.30;2.53;;;20.70;99.90;;;;;;5076131;27;20183;-79
2023/08/04 09:46:31;;;;;;;8.88;2.88;;;20.80;99.90;;;;;;5065351;28;20048;-72
2023/08/04 09:48:58;;;;;;;8.43;2.50;;;20.90;99.90;;;;;;5078963;28;20441;-72
2023/08/04 09:51:24;;;;;;;7.32;2.67;;;21.50;99.90;;;;;;5058388;28;20076;-70
2023/08/04 09:53:54;;;;;;;10.13;2.63;;;22.00;99.90;;;;;;5070440;28;20454;-79
2023/08/04 09:56:21;;;;;;;6.93;2.17;;;22.20;99.90;;;;;;5051987;28;20041;-73
2023/08/04 09:58:48;;;;;;;7.65;2.08;;;22.20;99.90;;;;;;5076555;28;20042;-74
2023/08/04 10:01:16;;;;;;;6.55;2.17;;;21.80;99.90;;;;;;5088298;28;20048;-72
2023/08/04 10:03:43;;;;;;;7.03;2.00;;;21.60;99.90;;;;;;5076557;28;20043;-71
2023/08/04 10:06:09;;;;;;;4.63;1.75;;;21.50;99.90;;;;;;5058400;28;20425;-73
2023/08/04 10:08:39;;;;;;;6.20;1.60;;;21.40;99.90;;;;;;5052152;28;20048;-73
2023/08/04 10:11:06;;;;;;;4.57;1.83;;;21.30;99.90;;;;;;5081242;28;20036;-72
2023/08/04 10:13:40;;;;;;;5.50;1.60;;;21.10;99.90;;;;;;5068815;28;20483;-73
2023/08/04 10:16:10;;;;;;;7.43;1.80;;;20.90;99.90;;;;;;5074753;28;20060;-72
2023/08/04 10:18:54;;;;;;;8.25;1.75;;;20.70;99.90;;;;;;5054176;28;20052;-72
2023/08/04 10:21:28;;;;;;;;;;;20.80;99.90;;;;;;5063135;28;20045;-72
2023/08/04 10:23:57;;;;;;;6.63;1.63;;;21.00;99.90;;;;;;5065859;28;19971;-73
2023/08/04 10:26:23;;;;;;;5.03;1.58;;;21.10;99.90;;;;;;5071105;28;20051;-72
2023/08/04 10:29:07;;;;;;;2.80;1.42;;;21.20;99.90;;;;;;5055953;28;20041;-71
2023/08/04 10:31:47;;;;;;;4.63;1.30;;;21.30;99.90;;;;;;5061220;28;20086;-74
2023/08/04 10:34:28;;;;;;;3.05;1.40;;;21.50;99.90;;;;;;5050407;28;20119;-72
2023/08/04 10:37:14;;;;;;;4.25;1.63;;;21.80;99.90;;;;;;5049011;28;20056;-78
2023/08/04 10:39:45;;;;;;;4.68;1.60;;;22.00;99.90;;;;;;5059505;28;20100;-73
2023/08/04 10:42:20;;;;;;;4.57;1.80;;;22.00;99.90;;;;;;5066063;28;20052;-73
2023/08/04 10:44:49;;;;;;;3.38;1.40;;;21.90;99.90;;;;;;5088488;28;20110;-73
2023/08/04 10:47:15;;;;;;;3.45;1.35;;;21.70;99.90;;;;;;5077258;28;20095;-73
2023/08/04 10:49:41;;;;;;;4.95;1.40;;;21.50;99.90;;;;;;5051175;28;20044;-72
2023/08/04 10:52:07;;;;;;;2.53;1.35;;;21.50;99.90;;;;;;5061258;28;20041;-73
2023/08/04 10:54:33;;;;;;;6.03;1.30;;;21.60;99.90;;;;;;5067354;28;20068;-74
2023/08/04 10:56:59;;;;;;;2.95;1.20;;;21.70;99.90;;;;;;5038775;28;20057;-74
2023/08/04 10:59:25;;;;;;;3.83;1.27;;;21.80;99.90;;;;;;5057548;28;20045;-72
2023/08/04 11:01:51;;;;;;;3.47;1.30;;;21.80;99.90;;;;;;5058873;28;20680;-77
2023/08/04 11:04:18;;;;;;;5.55;1.45;;;21.80;99.90;;;;;;5061729;28;20101;-74
2023/08/04 11:06:45;;;;;;;5.68;1.30;;;21.90;99.90;;;;;;5043546;28;20045;-77
2023/08/04 11:09:11;;;;;;;4.72;1.50;;;21.90;99.90;;;;;;5052121;28;20044;-77
2023/08/04 11:11:37;;;;;;;4.10;1.30;;;21.90;99.90;;;;;;5036983;28;20056;-75
2023/08/04 11:14:07;;;;;;;2.30;1.27;;;21.80;99.90;;;;;;5045018;28;20063;-73
2023/08/04 11:16:35;;;;;;;5.05;1.20;;;21.80;99.90;;;;;;5065419;28;20043;-73
2023/08/04 11:19:06;;;;;;;1.90;1.10;;;21.80;99.90;;;;;;5037915;28;20041;-72
2023/08/04 11:21:31;;;;;;;5.72;1.55;;;21.80;99.90;;;;;;5049182;28;20189;-72
2023/08/04 11:23:57;;;;;;;5.25;1.70;;;21.80;99.90;;;;;;5024092;28;20128;-73
2023/08/04 11:26:23;;;;;;;5.15;1.50;;;21.90;99.90;;;;;;5064934;28;20136;-77
2023/08/04 11:28:48;;;;;;;4.47;1.45;;;21.90;99.90;;;;;;5042455;28;20534;-73
2023/08/04 11:31:20;;;;;;;4.88;1.38;;;22.00;99.90;;;;;;5023102;28;20126;-74
2023/08/04 11:33:45;;;;;;;2.63;1.30;;;22.20;99.90;;;;;;5049363;28;20074;-72
2023/08/04 11:36:11;;;;;;;8.77;1.40;;;22.30;99.90;;;;;;5033254;28;20067;-74
2023/08/04 11:38:38;;;;;;;3.63;1.50;;;22.30;99.90;;;;;;5024148;28;20052;-73
2023/08/04 11:41:09;;;;;;;4.03;1.60;;;22.20;99.90;;;;;;5055649;28;20114;-74
2023/08/04 11:43:35;;;;;;;3.13;1.42;;;22.10;99.90;;;;;;5043069;28;20052;-73
2023/08/04 11:46:06;;;;;;;5.95;1.83;;;21.90;99.90;;;;;;5023516;28;20416;-74
2023/08/04 11:48:34;;;;;;;6.97;1.83;;;21.70;99.90;;;;;;5021744;28;20053;-74
2023/08/04 11:51:00;;;;;;;7.82;2.17;;;21.50;99.90;;;;;;5038727;28;20056;-72
2023/08/04 11:53:27;;;;;;;6.35;1.90;;;21.40;99.90;;;;;;5050700;28;20037;-71
2023/08/04 11:55:57;;;;;;;5.18;1.60;;;21.30;99.90;;;;;;5048093;28;20444;-73
2023/08/04 11:58:31;;;;;;;6.00;1.83;;;21.20;99.90;;;;;;5056657;28;20075;-74
2023/08/04 12:00:57;;;;;;;;;;;21.20;99.90;;;;;;5062583;28;20099;-73
2023/08/04 12:03:23;;;;;;;3.60;1.50;;;21.10;99.90;;;;;;5048119;28;20141;-74
2023/08/04 12:05:50;;;;;;;7.35;1.63;;;21.10;99.90;;;;;;5030976;28;20048;-73
2023/08/04 12:08:16;;;;;;;4.80;1.65;;;21.20;99.90;;;;;;5046113;28;20083;-73
2023/08/04 12:10:43;;;;;;;5.03;1.65;;;21.30;99.90;;;;;;5047931;28;20507;-73
2023/08/04 12:13:08;;;;;;;8.55;2.22;;;21.40;99.90;;;;;;5054446;28;20071;-74
2023/08/04 12:15:53;;;;;;;9.10;2.58;;;21.30;99.90;;;;;;5039938;28;20048;-73
2023/08/04 12:18:26;;;;;;;8.85;2.15;;;21.20;99.90;;;;;;5043066;28;20444;-77
2023/08/04 12:20:52;;;;;;;6.10;1.50;;;21.10;99.90;;;;;;5046732;28;20048;-72
2023/08/04 12:23:18;;;;;;;5.03;1.83;;;21.10;99.90;;;;;;5044264;28;20398;-73
2023/08/04 12:25:44;;;;;;;5.43;1.60;;;21.20;99.90;;;;;;5045219;28;20045;-77
2023/08/04 12:28:11;;;;;;;3.67;1.65;;;21.50;99.90;;;;;;5031055;28;20115;-73
2023/08/04 12:30:37;;;;;;;3.85;1.48;;;21.50;99.90;;;;;;5069423;28;20080;-72
2023/08/04 12:33:03;;;;;;;3.75;1.58;;;21.70;99.90;;;;;;5059395;28;20047;-73
2023/08/04 12:35:29;;;;;;;4.32;1.63;;;21.70;99.90;;;;;;5048843;28;20789;-73
2023/08/04 12:37:55;;;;;;;4.72;1.55;;;21.70;99.90;;;;;;5048089;28;20072;-72
2023/08/04 12:40:20;;;;;;;3.72;1.33;;;21.70;99.90;;;;;;5071974;28;20123;-72
2023/08/04 12:42:46;;;;;;;3.65;1.58;;;21.60;99.90;;;;;;5054974;28;20056;-73
2023/08/04 12:45:12;;;;;;;4.78;1.60;;;21.50;99.90;;;;;;5041428;28;20049;-73
2023/08/04 12:47:37;;;;;;;4.97;1.75;;;21.50;99.90;;;;;;5045446;28;20045;-71
2023/08/04 12:50:04;;;;;;;4.93;1.38;;;21.50;99.90;;;;;;5070685;28;20555;-72
2023/08/04 12:52:29;;;;;;;4.40;1.50;;;21.40;99.90;;;;;;5036512;28;20144;-75
2023/08/04 12:54:55;;;;;;;5.30;1.80;;;21.50;99.90;;;;;;5034754;28;20127;-72
2023/08/04 12:57:21;;;;;;;7.15;1.75;;;21.40;99.90;;;;;;5018685;28;20041;-73
2023/08/04 12:59:46;;;;;;;5.28;1.55;;;21.50;99.90;;;;;;5025046;28;20118;-70
2023/08/04 13:02:12;;;;;;;5.35;1.70;;;21.60;99.90;;;;;;5061624;28;20080;-77
2023/08/04 13:04:38;;;;;;;5.20;1.75;;;21.70;99.90;;;;;;5036026;28;20052;-77
2023/08/04 13:07:03;;;;;;;5.53;1.75;;;21.70;99.90;;;;;;5036111;28;20415;-75
2023/08/04 13:09:29;;;;;;;5.32;1.77;;;21.80;99.90;;;;;;5045927;28;20033;-72
2023/08/04 13:11:55;;;;;;;5.40;2.08;;;21.70;99.90;;;;;;5043220;28;20044;-73
2023/08/04 13:14:20;;;;;;;4.88;1.63;;;21.80;99.90;;;;;;5020359;28;20045;-72
2023/08/04 13:16:46;;;;;;;5.68;1.70;;;21.80;99.90;;;;;;5038889;28;20047;-72
2023/08/04 13:19:12;;;;;;;6.03;1.58;;;21.80;99.90;;;;;;5041461;28;20139;-73
2023/08/04 13:21:38;;;;;;;5.50;1.70;;;21.90;99.90;;;;;;5058800;28;20045;-73
2023/08/04 13:24:04;;;;;;;4.00;1.75;;;21.90;99.90;;;;;;5033644;28;20452;-73
2023/08/04 13:26:30;;;;;;;4.40;1.50;;;21.80;99.90;;;;;;5019269;28;20052;-74
2023/08/04 13:28:55;;;;;;;3.75;1.42;;;21.50;99.90;;;;;;5049402;28;20139;-74
2023/08/04 13:31:21;;;;;;;6.30;1.55;;;21.50;99.90;;;;;;5031342;28;20451;-73
2023/08/04 13:33:46;;;;;;;5.53;1.83;;;21.40;99.90;;;;;;5020211;28;20076;-72
2023/08/04 13:36:12;;;;;;;7.03;2.17;;;21.40;99.90;;;;;;5054710;28;20128;-74
2023/08/04 13:38:38;;;;;;;5.20;1.80;;;21.40;99.90;;;;;;5012934;28;20897;-73
2023/08/04 13:41:04;;;;;;;6.38;1.73;;;21.40;99.90;;;;;;5014142;28;20048;-74
2023/08/04 13:43:29;;;;;;;4.63;1.60;;;21.40;99.90;;;;;;5046580;28;20053;-73
2023/08/04 13:45:58;;;;;;;5.32;1.92;;;21.40;99.90;;;;;;5052661;28;20048;-74
2023/08/04 13:48:23;;;;;;;5.53;1.90;;;21.30;99.90;;;;;;5015752;28;20037;-72
2023/08/04 13:50:49;;;;;;;8.68;1.90;;;21.20;99.90;;;;;;5028480;28;20037;-72
2023/08/04 13:53:15;;;;;;;5.15;1.77;;;21.10;99.90;;;;;;5067995;28;20477;-72